Gustavus, Alaska
Current Conditions -  °F | °C
As of 3:56 PM on Friday 19 Dec 2014 (Local Time) from PAGS Reporting Station
Overcast Overcast  
Wind Chill: 34°   Ceiling: 6000
Heat Index: 34°   Visibility: 10mi
Dew Point: 32°   Wind: 3mph
Humidity: 93%   Direction: 40°NE
Pressure: 29.22"   Gusts: NA
Location:  58.41°N, 135.74°W
Report Text: PAGS 200056Z AUTO 04003KT 10SM OVC060 01/00 A2922 RMK AO1 PNO
Loading
Personal Weather Stations






























Interactive Weather Map New forecast layout! Learn more

10-Day Weather Forecast

Advertisements
Track Severe Weather on mobile